Time;durP1;ratioP1;P1;durP2;ratioP2;P2;SDS_P1;SDS_P2;PMS_P1;PMS_P2;Temp;Humidity;BMP_temperature;BMP_pressure;BME280_temperature;BME280_humidity;BME280_pressure;Samples;Min_cycle;Max_cycle;Signal;HPM_P1;HPM_P2
2022/04/01 00:02:09;;;;;;;;;;;3.20;99.90;;;;;;5047457;28;19955;-67
2022/04/01 00:04:36;;;;;;;;;;;3.20;99.90;;;;;;5044583;28;19992;-67
2022/04/01 00:07:04;;;;;;;;;;;3.20;99.90;;;;;;5046372;28;20444;-68
2022/04/01 00:09:31;;;;;;;;;;;3.20;99.90;;;;;;5047051;28;20019;-68
2022/04/01 00:11:57;;;;;;;;;;;3.20;99.90;;;;;;5041470;28;20013;-67
2022/04/01 00:14:24;;;;;;;;;;;3.30;99.90;;;;;;5046534;28;20002;-66
2022/04/01 00:16:51;;;;;;;;;;;3.30;99.90;;;;;;5042625;28;20025;-66
2022/04/01 00:19:20;;;;;;;;;;;3.30;99.90;;;;;;5050992;28;20313;-67
2022/04/01 00:21:46;;;;;;;;;;;3.30;99.90;;;;;;5045438;28;20708;-68
2022/04/01 00:24:13;;;;;;;;;;;3.30;99.90;;;;;;5046700;28;19944;-69
2022/04/01 00:26:39;;;;;;;;;;;3.30;99.90;;;;;;5047707;28;20354;-68
2022/04/01 00:29:14;;;;;;;;;;;3.30;99.90;;;;;;5046459;28;20041;-67
2022/04/01 00:31:41;;;;;;;;;;;3.30;99.90;;;;;;5047429;28;19966;-68
2022/04/01 00:34:16;;;;;;;;;;;3.40;99.90;;;;;;5046945;28;19949;-70
2022/04/01 00:36:44;;;;;;;;;;;3.40;99.90;;;;;;5047367;28;19949;-66
2022/04/01 00:39:11;;;;;;;;;;;3.50;99.90;;;;;;5042012;28;19984;-67
2022/04/01 00:41:37;;;;;;;;;;;3.60;99.90;;;;;;5049738;28;19959;-69
2022/04/01 00:44:14;;;;;;;;;;;3.60;99.90;;;;;;5049595;28;20361;-68
2022/04/01 00:46:41;;;;;;;;;;;3.60;99.90;;;;;;5051811;28;19989;-68
2022/04/01 00:49:07;;;;;;;;;;;3.70;99.90;;;;;;5046962;28;19950;-67
2022/04/01 00:51:34;;;;;;;;;;;3.70;99.90;;;;;;5048968;28;20496;-67
2022/04/01 00:54:02;;;;;;;;;;;3.70;99.90;;;;;;5051368;28;19940;-69
2022/04/01 00:56:32;;;;;;;;;;;3.70;99.90;;;;;;5054012;28;19944;-68
2022/04/01 00:58:58;;;;;;;;;;;3.70;99.90;;;;;;5049322;28;19942;-68
2022/04/01 01:01:25;;;;;;;;;;;3.70;99.90;;;;;;5050564;28;19968;-69
2022/04/01 01:03:51;;;;;;;;;;;3.70;99.90;;;;;;5053299;28;19942;-66
2022/04/01 01:06:19;;;;;;;;;;;3.70;99.90;;;;;;5051336;28;19942;-68
2022/04/01 01:08:45;;;;;;;;;;;3.70;99.90;;;;;;5050327;28;19952;-68
2022/04/01 01:11:14;;;;;;;;;;;3.70;99.90;;;;;;5050972;28;19951;-68
2022/04/01 01:13:40;;;;;;;;;;;3.70;99.90;;;;;;5048392;28;19962;-67
2022/04/01 01:16:07;;;;;;;;;;;3.70;99.90;;;;;;5054086;28;20202;-67
2022/04/01 01:18:34;;;;;;;;;;;3.70;99.90;;;;;;5060443;28;20033;-67
2022/04/01 01:21:01;;;;;;;;;;;3.70;99.90;;;;;;5052212;28;22157;-68
2022/04/01 01:23:29;;;;;;;;;;;3.60;99.90;;;;;;5055803;28;19942;-67
2022/04/01 01:25:57;;;;;;;;;;;3.60;99.90;;;;;;5047995;28;20021;-67
2022/04/01 01:28:24;;;;;;;;;;;3.60;99.90;;;;;;5049091;28;20064;-68
2022/04/01 01:30:51;;;;;;;;;;;3.60;99.90;;;;;;5041738;28;19949;-69
2022/04/01 01:33:19;;;;;;;;;;;3.50;99.90;;;;;;5048090;28;19960;-67
2022/04/01 01:35:46;;;;;;;;;;;3.50;99.90;;;;;;5040662;28;20002;-66
2022/04/01 01:38:13;;;;;;;;;;;3.50;99.90;;;;;;5040409;28;19950;-68
2022/04/01 01:40:39;;;;;;;;;;;3.50;99.90;;;;;;5038481;28;19944;-66
2022/04/01 01:43:07;;;;;;;;;;;3.50;99.90;;;;;;5038779;28;19963;-67
2022/04/01 01:45:34;;;;;;;;;;;3.50;99.90;;;;;;5037212;28;19947;-68
2022/04/01 01:48:00;;;;;;;;;;;3.50;99.90;;;;;;5038294;28;20407;-65
2022/04/01 01:55:56;;;;;;;;;;;3.50;99.90;;;;;;5047407;28;21439;-67
2022/04/01 01:58:24;;;;;;;;;;;3.50;99.90;;;;;;5048933;28;19988;-67
2022/04/01 02:00:50;;;;;;;;;;;3.50;99.90;;;;;;5045075;28;19946;-68
2022/04/01 02:03:17;;;;;;;;;;;3.50;99.90;;;;;;5047981;28;20437;-68
2022/04/01 02:05:43;;;;;;;;;;;3.50;99.90;;;;;;5049008;28;20406;-68
2022/04/01 02:08:10;;;;;;;;;;;3.50;99.90;;;;;;5047886;28;19952;-68
2022/04/01 02:10:36;;;;;;;;;;;3.40;99.90;;;;;;5049656;28;19946;-67
2022/04/01 02:13:03;;;;;;;;;;;3.50;99.90;;;;;;5047106;28;19990;-66
2022/04/01 02:15:33;;;;;;;;;;;3.50;99.90;;;;;;5048646;28;19945;-68
2022/04/01 02:17:59;;;;;;;;;;;3.50;99.90;;;;;;5050660;28;19946;-68
2022/04/01 02:20:26;;;;;;;;;;;3.40;99.90;;;;;;5051690;28;19949;-67
2022/04/01 02:22:54;;;;;;;;;;;3.40;99.90;;;;;;5048660;28;20018;-67
2022/04/01 02:25:21;;;;;;;;;;;3.40;99.90;;;;;;5048396;28;20011;-68
2022/04/01 02:27:48;;;;;;;;;;;3.40;99.90;;;;;;5049570;28;19947;-67
2022/04/01 02:30:14;;;;;;;;;;;3.50;99.90;;;;;;5049231;28;19938;-67
2022/04/01 02:32:43;;;;;;;;;;;3.40;99.90;;;;;;5050662;28;19966;-68
2022/04/01 02:35:10;;;;;;;;;;;3.40;99.90;;;;;;5050852;28;19942;-66
2022/04/01 02:37:37;;;;;;;;;;;3.40;99.90;;;;;;5054978;28;19955;-69
2022/04/01 02:40:04;;;;;;;;;;;3.40;99.90;;;;;;5048473;28;19955;-68
2022/04/01 02:42:30;;;;;;;;;;;3.50;99.90;;;;;;5045158;28;19965;-66
2022/04/01 02:44:57;;;;;;;;;;;3.40;99.90;;;;;;5053558;28;19939;-67
2022/04/01 02:47:24;;;;;;;;;;;3.40;99.90;;;;;;5042815;28;19948;-66
2022/04/01 02:49:52;;;;;;;;;;;3.40;99.90;;;;;;5047642;28;19953;-67
2022/04/01 02:52:19;;;;;;;;;;;3.30;99.90;;;;;;5051308;28;20394;-68
2022/04/01 02:54:46;;;;;;;;;;;3.30;99.90;;;;;;5053770;28;19949;-68
2022/04/01 02:57:13;;;;;;;;;;;3.30;99.90;;;;;;5048964;28;20037;-67
2022/04/01 02:59:39;;;;;;;;;;;3.20;99.90;;;;;;5049469;28;20020;-68
2022/04/01 03:02:06;;;;;;;;;;;3.30;99.90;;;;;;5048288;28;19960;-67
2022/04/01 03:04:32;;;;;;;;;;;3.30;99.90;;;;;;5049295;28;19940;-68
2022/04/01 03:07:00;;;;;;;;;;;3.20;99.90;;;;;;5045935;28;19999;-68
2022/04/01 03:09:27;;;;;;;;;;;3.20;99.90;;;;;;5044907;28;19950;-67
2022/04/01 03:11:54;;;;;;;;;;;3.20;99.90;;;;;;5045666;28;19961;-67
2022/04/01 03:14:22;;;;;;;;;;;3.30;99.90;;;;;;5049298;28;19974;-68
2022/04/01 03:16:49;;;;;;;;;;;3.20;99.90;;;;;;5048676;28;20578;-68
2022/04/01 03:19:16;;;;;;;;;;;3.20;99.90;;;;;;5048547;28;20413;-68
2022/04/01 03:21:43;;;;;;;;;;;3.20;99.90;;;;;;5053331;28;19969;-68
2022/04/01 03:24:11;;;;;;;;;;;3.20;99.90;;;;;;5045846;28;19949;-69
2022/04/01 03:26:38;;;;;;;;;;;3.20;99.90;;;;;;5044122;28;20066;-69
2022/04/01 03:29:06;;;;;;;;;;;3.10;99.90;;;;;;5053904;28;19943;-66
2022/04/01 03:31:33;;;;;;;;;;;3.10;99.90;;;;;;5048220;28;19970;-67
2022/04/01 03:34:00;;;;;;;;;;;3.10;99.90;;;;;;5050205;28;19947;-67
2022/04/01 03:36:26;;;;;;;;;;;3.10;99.90;;;;;;5051364;28;19942;-68
2022/04/01 03:38:53;;;;;;;;;;;3.10;99.90;;;;;;5048417;28;19992;-67
2022/04/01 03:41:21;;;;;;;;;;;3.10;99.90;;;;;;5051636;28;19938;-67
2022/04/01 03:43:47;;;;;;;;;;;3.10;99.90;;;;;;5052777;28;20309;-67
2022/04/01 03:46:15;;;;;;;;;;;3.10;99.90;;;;;;5048623;28;19943;-69
2022/04/01 03:48:45;;;;;;;;;;;3.10;99.90;;;;;;5053134;28;20690;-67
2022/04/01 03:51:13;;;;;;;;;;;3.10;99.90;;;;;;5047747;28;20624;-66
2022/04/01 03:53:42;;;;;;;;;;;3.10;99.90;;;;;;5052076;28;19967;-69
2022/04/01 03:56:08;;;;;;;;;;;3.10;99.90;;;;;;5048736;28;19994;-69
2022/04/01 03:58:36;;;;;;;;;;;3.00;99.90;;;;;;5043275;28;19945;-68
2022/04/01 04:01:03;;;;;;;;;;;3.00;99.90;;;;;;5048759;28;19955;-67
2022/04/01 04:03:31;;;;;;;;;;;3.00;99.90;;;;;;5054315;22;19981;-68
2022/04/01 04:05:58;;;;;;;;;;;3.00;99.90;;;;;;5027253;28;20415;-68
2022/04/01 04:08:26;;;;;;;;;;;3.00;99.90;;;;;;5032109;28;19965;-68
2022/04/01 04:10:53;;;;;;;;;;;3.00;99.90;;;;;;5025708;28;20074;-68
2022/04/01 04:13:20;;;;;;;;;;;2.90;99.90;;;;;;5037608;28;19963;-68
2022/04/01 04:15:52;;;;;;;;;;;2.90;99.90;;;;;;5027757;28;19943;-67
2022/04/01 04:18:20;;;;;;;;;;;2.90;99.90;;;;;;5026853;28;19950;-67
2022/04/01 04:20:57;;;;;;;;;;;2.90;99.90;;;;;;5026465;28;19947;-67
2022/04/01 04:23:24;;;;;;;;;;;2.90;99.90;;;;;;5035873;28;19962;-69
2022/04/01 04:25:54;;;;;;;;;;;2.90;99.90;;;;;;5026268;28;19940;-66
2022/04/01 04:28:24;;;;;;;;;;;2.90;99.90;;;;;;5031013;28;20145;-67
2022/04/01 04:30:53;;;;;;;;;;;2.90;99.90;;;;;;5032815;28;19941;-69
2022/04/01 04:33:22;;;;;;;;;;;2.90;99.90;;;;;;5032058;28;19965;-68
2022/04/01 04:35:50;;;;;;;;;;;2.90;99.90;;;;;;5031264;28;20041;-68
2022/04/01 04:38:18;;;;;;;;;;;2.90;99.90;;;;;;5032891;28;19941;-68
2022/04/01 04:40:44;;;;;;;;;;;2.80;99.90;;;;;;5034552;28;19953;-68
2022/04/01 04:43:14;;;;;;;;;;;2.80;99.90;;;;;;5039004;28;19957;-66
2022/04/01 04:45:41;;;;;;;;;;;2.80;99.90;;;;;;5033568;28;19940;-67
2022/04/01 04:48:10;;;;;;;;;;;2.70;99.90;;;;;;5034029;28;19940;-67
2022/04/01 04:50:37;;;;;;;;;;;2.70;99.90;;;;;;5045606;28;19938;-66
2022/04/01 04:53:04;;;;;;;;;;;2.70;99.90;;;;;;5031533;28;19974;-68
2022/04/01 04:55:33;;;;;;;;;;;2.80;99.90;;;;;;5027608;28;19942;-67
2022/04/01 04:57:59;;;;;;;;;;;2.80;99.90;;;;;;5031712;28;19948;-67
2022/04/01 05:00:26;;;;;;;;;;;2.70;99.90;;;;;;5031981;28;19950;-67
2022/04/01 05:03:08;;;;;;;;;;;2.70;99.90;;;;;;5032715;28;19967;-67
2022/04/01 05:05:38;;;;;;;;;;;2.70;99.90;;;;;;5024696;28;19948;-68
2022/04/01 05:08:07;;;;;;;;;;;2.70;99.90;;;;;;5034638;28;20003;-68
2022/04/01 05:10:39;;;;;;;;;;;2.70;99.90;;;;;;5031526;28;19939;-67
2022/04/01 05:13:11;;;;;;;;;;;2.70;99.90;;;;;;5032869;28;19974;-67
2022/04/01 05:15:39;;;;;;;;;;;2.70;99.90;;;;;;5033821;28;19959;-67
2022/04/01 05:18:10;;;;;;;;;;;2.70;99.90;;;;;;5032150;28;20052;-68
2022/04/01 05:20:39;;;;;;;;;;;2.70;99.90;;;;;;5029733;28;19961;-67
2022/04/01 05:23:11;;;;;;;;;;;2.70;99.90;;;;;;5030859;28;19962;-66
2022/04/01 05:25:41;;;;;;;;;;;2.70;99.90;;;;;;5037266;28;19941;-67
2022/04/01 05:28:10;;;;;;;;;;;2.70;99.90;;;;;;5033419;28;20094;-66
2022/04/01 05:30:38;;;;;;;;;;;2.70;99.90;;;;;;5036797;28;19948;-67
2022/04/01 05:33:07;;;;;;;;;;;2.70;99.90;;;;;;5030658;28;19960;-66
2022/04/01 05:35:35;;;;;;;;;;;2.70;99.90;;;;;;5031005;28;20026;-69
2022/04/01 05:38:03;;;;;;;;;;;2.70;99.90;;;;;;5029518;28;20460;-68
2022/04/01 05:40:29;;;;;;;;;;;2.70;99.90;;;;;;5039803;28;19958;-69
2022/04/01 05:42:56;;;;;;;;;;;2.70;99.90;;;;;;5035287;28;19961;-68
2022/04/01 05:45:25;;;;;;;;;;;2.70;99.90;;;;;;5031024;28;19943;-69
2022/04/01 05:47:51;;;;;;;;;;;2.80;99.90;;;;;;5030989;28;20464;-68
2022/04/01 05:50:19;;;;;;;;;;;2.80;99.90;;;;;;5026287;28;19942;-67
2022/04/01 05:52:46;;;;;;;;;;;2.80;99.90;;;;;;5033388;28;20059;-66
2022/04/01 05:55:15;;;;;;;;;;;2.80;99.90;;;;;;5039993;28;19943;-67
2022/04/01 05:57:42;;;;;;;;;;;2.80;99.90;;;;;;5039758;28;19984;-67
2022/04/01 06:00:12;;;;;;;;;;;2.80;99.90;;;;;;5039511;28;20308;-67
2022/04/01 06:02:48;;;;;;;;;;;2.80;99.90;;;;;;5033327;28;20448;-67
2022/04/01 06:05:18;;;;;;;;;;;2.80;99.90;;;;;;5042284;28;19953;-67
2022/04/01 06:07:50;;;;;;;;;;;2.80;99.90;;;;;;5033601;28;20599;-67
2022/04/01 06:10:21;;;;;;;;;;;2.80;99.90;;;;;;5034611;28;19940;-67
2022/04/01 06:12:55;;;;;;;;;;;2.80;99.90;;;;;;5040637;28;20433;-68
2022/04/01 06:15:27;;;;;;;;;;;2.80;99.90;;;;;;5034088;28;19953;-68
2022/04/01 06:18:04;;;;;;;;;;;2.80;99.90;;;;;;5035223;28;19946;-67
2022/04/01 06:20:33;;;;;;;;;;;2.80;99.90;;;;;;5018631;28;19941;-68
2022/04/01 06:23:01;;;;;;;;;;;2.80;99.90;;;;;;5027385;28;19988;-68
2022/04/01 06:25:32;;;;;;;;;;;2.80;99.90;;;;;;5030322;28;19938;-67
2022/04/01 06:28:04;;;;;;;;;;;2.80;99.90;;;;;;5029843;28;20010;-67
2022/04/01 06:30:32;;;;;;;;;;;2.80;99.90;;;;;;5021890;28;20000;-68
2022/04/01 06:33:03;;;;;;;;;;;2.80;99.90;;;;;;5032890;28;19973;-67
2022/04/01 06:35:30;;;;;;;;;;;2.80;99.90;;;;;;5042347;28;19945;-68
2022/04/01 06:37:59;;;;;;;;;;;2.80;99.90;;;;;;5031523;28;19947;-67
2022/04/01 06:40:29;;;;;;;;;;;2.80;99.90;;;;;;5029340;28;20540;-69
2022/04/01 06:42:57;;;;;;;;;;;2.80;99.90;;;;;;5030775;28;19969;-67
2022/04/01 06:45:24;;;;;;;;;;;2.80;99.90;;;;;;5031216;28;19992;-68
2022/04/01 06:47:51;;;;;;;;;;;2.80;99.90;;;;;;5028380;28;19947;-68
2022/04/01 06:50:17;;;;;;;;;;;2.80;99.90;;;;;;5030697;28;19947;-68
2022/04/01 06:52:44;;;;;;;;;;;2.80;99.90;;;;;;5041316;28;19962;-67
2022/04/01 06:55:11;;;;;;;;;;;2.80;99.90;;;;;;5046305;28;20321;-68
2022/04/01 06:57:37;;;;;;;;;;;2.80;99.90;;;;;;5042063;28;19980;-67
2022/04/01 07:00:08;;;;;;;;;;;2.90;99.90;;;;;;5047694;28;19952;-68
2022/04/01 07:02:34;;;;;;;;;;;2.90;99.90;;;;;;5043029;28;19968;-67
2022/04/01 07:05:01;;;;;;;;;;;2.90;99.90;;;;;;5041092;28;19946;-68
2022/04/01 07:07:28;;;;;;;;;;;2.90;99.90;;;;;;5038307;28;19947;-68
2022/04/01 07:09:54;;;;;;;;;;;2.90;99.90;;;;;;5029675;28;19953;-68
2022/04/01 07:12:21;;;;;;;;;;;2.90;99.90;;;;;;5029836;28;19963;-68
2022/04/01 07:14:48;;;;;;;;;;;2.90;99.90;;;;;;5043311;28;19963;-67
2022/04/01 07:17:16;;;;;;;;;;;2.90;99.90;;;;;;5032972;28;19941;-68
2022/04/01 07:19:42;;;;;;;;;;;3.00;99.90;;;;;;5035628;28;20390;-67
2022/04/01 07:22:09;;;;;;;;;;;3.00;99.90;;;;;;5036640;28;19951;-68
2022/04/01 07:24:35;;;;;;;;;;;3.00;99.90;;;;;;5035894;28;20408;-68
2022/04/01 07:27:02;;;;;;;;;;;3.00;99.90;;;;;;5044189;28;19945;-67
2022/04/01 07:29:29;;;;;;;;;;;3.00;99.90;;;;;;5035949;28;19952;-68
2022/04/01 07:34:43;;;;;;;;;;;3.00;99.90;;;;;;5049644;28;19971;-68
2022/04/01 07:37:10;;;;;;;;;;;2.90;99.90;;;;;;5049585;28;19995;-69
2022/04/01 07:39:36;;;;;;;;;;;3.00;99.90;;;;;;5049559;28;19953;-68
2022/04/01 07:42:03;;;;;;;;;;;3.00;99.90;;;;;;5032122;28;20378;-68
2022/04/01 07:44:30;;;;;;;;;;;3.00;99.90;;;;;;5029775;28;19946;-69
2022/04/01 07:46:56;;;;;;;;;;;3.00;99.90;;;;;;5029880;28;19951;-69
2022/04/01 07:49:23;;;;;;;;;;;3.00;99.90;;;;;;5029940;28;19951;-68
2022/04/01 07:51:51;;;;;;;;;;;3.00;99.90;;;;;;5029181;28;19953;-68
2022/04/01 07:54:17;;;;;;;;;;;3.00;99.90;;;;;;5031479;28;19956;-69
2022/04/01 07:56:44;;;;;;;;;;;3.10;99.90;;;;;;5031975;28;19948;-69
2022/04/01 07:59:14;;;;;;;;;;;3.10;99.90;;;;;;5019878;28;19947;-68
2022/04/01 08:01:40;;;;;;;;;;;3.10;99.90;;;;;;5039646;28;20006;-69
2022/04/01 08:04:07;;;;;;;;;;;3.20;99.90;;;;;;5029818;28;20032;-68
2022/04/01 08:06:33;;;;;;;;;;;3.30;99.90;;;;;;5043006;28;20407;-69
2022/04/01 08:09:01;;;;;;;;;;;3.30;99.90;;;;;;5049099;28;19974;-69
2022/04/01 08:11:28;;;;;;;;;;;3.40;99.90;;;;;;5042851;28;20449;-68
2022/04/01 08:13:55;;;;;;;;;;;3.50;99.90;;;;;;5028699;28;19961;-69
2022/04/01 08:16:22;;;;;;;;;;;3.50;99.90;;;;;;5041829;28;19953;-68
2022/04/01 08:18:49;;;;;;;;;;;3.50;99.90;;;;;;5036354;28;19988;-68
2022/04/01 08:21:16;;;;;;;;;;;3.60;99.90;;;;;;5048120;28;19999;-68
2022/04/01 08:23:42;;;;;;;;;;;3.70;99.90;;;;;;5043048;28;19958;-68
2022/04/01 08:26:11;;;;;;;;;;;3.80;99.90;;;;;;5029368;28;19944;-67
2022/04/01 08:28:37;;;;;;;;;;;3.80;99.90;;;;;;5035198;28;19952;-67
2022/04/01 08:31:04;;;;;;;;;;;3.70;99.90;;;;;;5033806;28;19943;-67
2022/04/01 08:33:31;;;;;;;;;;;3.80;99.90;;;;;;5028206;28;20033;-68
2022/04/01 08:35:57;;;;;;;;;;;3.80;99.90;;;;;;5042258;28;19951;-68
2022/04/01 08:38:24;;;;;;;;;;;3.80;99.90;;;;;;5037451;28;19949;-68
2022/04/01 08:40:50;;;;;;;;;;;3.80;99.90;;;;;;5047976;28;19972;-68
2022/04/01 08:43:26;;;;;;;;;;;3.80;99.90;;;;;;5040440;28;19976;-68
2022/04/01 08:45:53;;;;;;;;;;;3.80;99.90;;;;;;5028872;28;19942;-67
2022/04/01 08:48:19;;;;;;;;;;;3.80;99.90;;;;;;5028435;28;19989;-67
2022/04/01 08:50:46;;;;;;;;;;;3.80;99.90;;;;;;5040728;28;20216;-67
2022/04/01 08:53:13;;;;;;;;;;;3.90;99.90;;;;;;5027503;28;19964;-68
2022/04/01 08:55:40;;;;;;;;;;;4.00;99.90;;;;;;5042172;28;19950;-68
2022/04/01 08:58:06;;;;;;;;;;;4.00;99.90;;;;;;5029107;28;19954;-71
2022/04/01 09:00:35;;;;;;;;;;;4.00;99.90;;;;;;5038470;28;20492;-68
2022/04/01 09:03:03;;;;;;;;;;;4.10;99.90;;;;;;5032922;28;20061;-70
2022/04/01 09:05:29;;;;;;;;;;;4.10;99.90;;;;;;5033995;28;20003;-68
2022/04/01 09:08:00;;;;;;;;;;;4.10;99.90;;;;;;5027890;28;19979;-67
2022/04/01 09:10:26;;;;;;;;;;;4.00;99.90;;;;;;5022944;28;20323;-69
2022/04/01 09:12:53;;;;;;;;;;;4.10;99.90;;;;;;5024993;28;20068;-68
2022/04/01 09:15:19;;;;;;;;;;;4.10;99.90;;;;;;5033866;28;19956;-68
2022/04/01 09:17:48;;;;;;;;;;;4.10;99.90;;;;;;5032351;28;19945;-67
2022/04/01 09:20:16;;;;;;;;;;;4.20;99.90;;;;;;5031591;28;19948;-67
2022/04/01 09:22:43;;;;;;;;;;;4.30;99.90;;;;;;5031670;28;19987;-67
2022/04/01 09:25:11;;;;;;;;;;;4.30;99.90;;;;;;5027051;28;19948;-67
2022/04/01 09:27:45;;;;;;;;;;;4.40;99.90;;;;;;5026681;28;19938;-67
2022/04/01 09:30:13;;;;;;;;;;;4.30;99.90;;;;;;5025740;28;19939;-67
2022/04/01 09:32:41;;;;;;;;;;;4.30;99.90;;;;;;5035676;28;20474;-67
2022/04/01 09:35:10;;;;;;;;;;;4.30;99.90;;;;;;5031742;28;19961;-67
2022/04/01 09:37:37;;;;;;;;;;;4.20;99.90;;;;;;5028917;28;19947;-68
2022/04/01 09:40:04;;;;;;;;;;;4.10;99.90;;;;;;5029168;28;19943;-68
2022/04/01 09:42:31;;;;;;;;;;;4.00;99.90;;;;;;5037604;28;19954;-68
2022/04/01 09:44:58;;;;;;;;;;;4.00;99.90;;;;;;5027462;28;19946;-68
2022/04/01 09:47:25;;;;;;;;;;;4.00;99.90;;;;;;5030080;28;20000;-69
2022/04/01 09:49:52;;;;;;;;;;;4.00;99.90;;;;;;5027774;28;19947;-67
2022/04/01 09:52:22;;;;;;;;;;;3.90;99.90;;;;;;5030227;28;19954;-67
2022/04/01 09:54:49;;;;;;;;;;;4.00;99.90;;;;;;5045314;28;19960;-68
2022/04/01 09:57:17;;;;;;;;;;;4.00;99.90;;;;;;5035537;28;19945;-69
2022/04/01 09:59:44;;;;;;;;;;;4.00;99.90;;;;;;5023883;28;19959;-69
2022/04/01 10:02:10;;;;;;;;;;;3.90;99.90;;;;;;5026418;28;19947;-69
2022/04/01 10:04:37;;;;;;;;;;;4.00;99.90;;;;;;5029899;28;19953;-67
2022/04/01 10:07:04;;;;;;;;;;;4.10;99.90;;;;;;5032809;28;19942;-67
2022/04/01 10:09:32;;;;;;;;;;;4.20;99.90;;;;;;5035396;28;19943;-68
2022/04/01 10:12:01;;;;;;;;;;;4.20;99.90;;;;;;5036294;28;19942;-68
2022/04/01 10:14:27;;;;;;;;;;;4.20;99.90;;;;;;5025956;28;19953;-69
2022/04/01 10:16:55;;;;;;;;;;;4.10;99.90;;;;;;5027497;28;19939;-67
2022/04/01 10:19:24;;;;;;;;;;;4.10;99.90;;;;;;5033133;28;20031;-67
2022/04/01 10:21:51;;;;;;;;;;;4.00;99.90;;;;;;5029849;28;19937;-68
2022/04/01 10:24:26;;;;;;;;;;;4.00;99.90;;;;;;5023544;28;19964;-68
2022/04/01 10:27:06;;;;;;;;;;;4.10;99.90;;;;;;5027834;28;19941;-68
2022/04/01 10:29:33;;;;;;;;;;;4.10;99.90;;;;;;5028634;28;19946;-69
2022/04/01 10:32:20;;;;;;;;;;;4.10;99.90;;;;;;5038274;28;20002;-69
2022/04/01 10:34:47;;;;;;;;;;;4.10;99.90;;;;;;5034271;28;19966;-70
2022/04/01 10:37:15;;;;;;;;;;;4.10;99.90;;;;;;5030011;28;19940;-67
2022/04/01 10:39:47;;;;;;;;;;;4.10;99.90;;;;;;5031798;28;19948;-70
2022/04/01 10:42:16;;;;;;;;;;;4.10;99.90;;;;;;5025366;28;19962;-69
2022/04/01 10:44:47;;;;;;;;;;;4.20;99.90;;;;;;5024356;28;19939;-69
2022/04/01 10:47:14;;;;;;;;;;;4.20;99.90;;;;;;5023149;28;19954;-69
2022/04/01 10:52:24;;;;;;;;;;;4.20;99.90;;;;;;5033296;28;19963;-69
2022/04/01 10:55:06;;;;;;;;;;;4.30;99.90;;;;;;5029020;28;19954;-74
2022/04/01 10:57:38;;;;;;;;;;;4.40;99.90;;;;;;5026106;28;19988;-72
2022/04/01 11:00:07;;;;;;;;;;;4.60;99.90;;;;;;5025228;28;19948;-71
2022/04/01 11:02:34;;;;;;;;;;;4.70;99.90;;;;;;5028506;28;19963;-71
2022/04/01 11:05:21;;;;;;;;;;;4.70;99.90;;;;;;5027934;28;19942;-68
2022/04/01 11:08:07;;;;;;;;;;;4.80;99.90;;;;;;5038822;28;19951;-70
2022/04/01 11:10:34;;;;;;;;;;;4.80;99.90;;;;;;5026928;28;20062;-72
2022/04/01 11:13:02;;;;;;;;;;;4.80;99.90;;;;;;5022983;28;19968;-70
2022/04/01 11:15:29;;;;;;;;;;;4.70;99.90;;;;;;5028527;28;19958;-69
2022/04/01 11:18:02;;;;;;;;;;;4.80;99.90;;;;;;5029110;28;19949;-69
2022/04/01 11:20:30;;;;;;;;;;;5.00;99.90;;;;;;5029883;28;20552;-69
2022/04/01 11:23:01;;;;;;;;;;;5.10;99.90;;;;;;5032974;28;19959;-69
2022/04/01 11:26:00;;;;;;;;;;;5.20;99.90;;;;;;5029813;28;20299;-68
2022/04/01 11:28:30;;;;;;;;;;;5.10;99.90;;;;;;4966269;28;19940;-69
2022/04/01 11:31:23;;;;;;;;;;;5.10;99.90;;;;;;4973044;28;19944;-70
2022/04/01 11:34:01;;;;;;;;;;;4.90;99.90;;;;;;5005779;28;20367;-69
2022/04/01 11:36:28;;;;;;;;;;;4.80;99.90;;;;;;5029543;28;19943;-70
2022/04/01 11:38:54;;;;;;;;;;;4.60;99.90;;;;;;5031786;28;19950;-69
2022/04/01 11:41:21;;;;;;;;;;;4.60;99.90;;;;;;5040236;28;19946;-70
2022/04/01 11:43:49;;;;;;;;;;;4.60;99.90;;;;;;5032825;28;20576;-69
2022/04/01 11:46:16;;;;;;;;;;;4.60;99.90;;;;;;5030332;28;19982;-70
2022/04/01 11:48:45;;;;;;;;;;;4.50;99.90;;;;;;5042103;28;19992;-70
2022/04/01 11:51:14;;;;;;;;;;;4.50;99.90;;;;;;5032466;28;19998;-69
2022/04/01 11:53:43;;;;;;;;;;;4.40;99.90;;;;;;5033387;28;20052;-69
2022/04/01 11:56:11;;;;;;;;;;;4.50;99.90;;;;;;5028870;28;19959;-68
2022/04/01 11:58:50;;;;;;;;;;;4.60;99.90;;;;;;5025617;28;20493;-69
2022/04/01 12:01:19;;;;;;;;;;;4.70;99.90;;;;;;5028359;28;19999;-70
2022/04/01 12:03:45;;;;;;;;;;;4.50;99.90;;;;;;5028846;28;19964;-69
2022/04/01 12:08:56;;;;;;;;;;;4.60;99.90;;;;;;5032680;28;19948;-69
2022/04/01 12:11:22;;;;;;;;;;;4.60;99.90;;;;;;5028520;28;19944;-70
2022/04/01 12:13:50;;;;;;;;;;;4.60;99.90;;;;;;5029516;28;19968;-70
2022/04/01 12:16:18;;;;;;;;;;;4.50;99.90;;;;;;5030158;28;20003;-71
2022/04/01 12:18:47;;;;;;;;;;;4.40;99.90;;;;;;5029660;28;19950;-70
2022/04/01 12:21:16;;;;;;;;;;;4.40;99.90;;;;;;5028455;28;19944;-71
2022/04/01 12:23:45;;;;;;;;;;;4.30;99.90;;;;;;5028890;28;20438;-70
2022/04/01 12:26:12;;;;;;;;;;;4.30;99.90;;;;;;5033282;28;19937;-70
2022/04/01 12:28:39;;;;;;;;;;;4.10;99.90;;;;;;5023611;28;19946;-70
2022/04/01 12:31:06;;;;;;;;;;;4.00;99.90;;;;;;5023005;28;19957;-72
2022/04/01 12:33:33;;;;;;;;;;;3.90;99.90;;;;;;5025308;28;19962;-70
2022/04/01 12:36:02;;;;;;;;;;;3.90;99.90;;;;;;5035460;28;19962;-72
2022/04/01 12:38:29;;;;;;;;;;;3.90;99.90;;;;;;5026623;28;19951;-70
2022/04/01 12:40:58;;;;;;;;;;;4.00;99.90;;;;;;5027324;28;19939;-72
2022/04/01 12:43:28;;;;;;;;;;;4.10;99.90;;;;;;5026958;28;19975;-70
2022/04/01 12:45:58;;;;;;;;;;;4.20;99.90;;;;;;5028341;28;19944;-71
2022/04/01 12:48:25;;;;;;;;;;;4.40;99.90;;;;;;5025235;28;20526;-71
2022/04/01 12:50:52;;;;;;;;;;;4.60;99.90;;;;;;5025771;28;20530;-71
2022/04/01 12:53:20;;;;;;;;;;;4.70;99.90;;;;;;5032271;28;20017;-70
2022/04/01 12:55:47;;;;;;;;;;;4.90;99.90;;;;;;5032507;28;19975;-70
2022/04/01 12:58:14;;;;;;;;;;;4.90;99.90;;;;;;5031603;28;19942;-70
2022/04/01 13:00:41;;;;;;;;;;;4.90;99.90;;;;;;5039736;28;19942;-70
2022/04/01 13:03:08;;;;;;;;;;;4.90;99.90;;;;;;5023530;28;19961;-71
2022/04/01 13:05:35;;;;;;;;;;;4.90;99.90;;;;;;5030558;28;19951;-71
2022/04/01 13:08:01;;;;;;;;;;;5.00;99.90;;;;;;5029660;28;19945;-71
2022/04/01 13:10:29;;;;;;;;;;;5.10;99.90;;;;;;5027441;28;19959;-71
2022/04/01 13:12:56;;;;;;;;;;;5.20;99.90;;;;;;5034243;28;19957;-71
2022/04/01 13:15:24;;;;;;;;;;;5.20;99.90;;;;;;5030096;28;20357;-72
2022/04/01 13:17:51;;;;;;;;;;;5.20;99.90;;;;;;5045545;28;19956;-71
2022/04/01 13:20:20;;;;;;;;;;;5.20;99.90;;;;;;5037973;28;19949;-72
2022/04/01 13:22:47;;;;;;;;;;;5.30;99.90;;;;;;5029572;28;19972;-72
2022/04/01 13:25:14;;;;;;;;;;;5.40;99.90;;;;;;5029158;28;19948;-70
2022/04/01 13:27:42;;;;;;;;;;;5.40;99.90;;;;;;5033034;28;20472;-71
2022/04/01 13:30:10;;;;;;;;;;;5.40;99.90;;;;;;5033913;28;19947;-70
2022/04/01 13:32:36;;;;;;;;;;;5.60;99.90;;;;;;5029415;28;19959;-71
2022/04/01 13:35:04;;;;;;;;;;;5.50;99.90;;;;;;5038567;28;20453;-71
2022/04/01 13:37:30;;;;;;;;;;;5.40;99.90;;;;;;5036778;28;19938;-71
2022/04/01 13:39:57;;;;;;;;;;;5.40;99.90;;;;;;5028778;28;19945;-70
2022/04/01 13:42:24;;;;;;;;;;;5.40;99.90;;;;;;5030884;28;20436;-71
2022/04/01 13:44:52;;;;;;;;;;;5.40;99.90;;;;;;5071913;22;20014;-70
2022/04/01 13:47:19;;;;;;;;;;;5.30;99.90;;;;;;5055540;28;20052;-71
2022/04/01 13:49:46;;;;;;;;;;;5.30;99.90;;;;;;5056427;28;20191;-71
2022/04/01 13:52:13;;;;;;;;;;;5.30;99.90;;;;;;5059901;28;20322;-71
2022/04/01 13:54:40;;;;;;;;;;;5.40;99.90;;;;;;5070606;28;19957;-70
2022/04/01 13:57:08;;;;;;;;;;;5.30;99.90;;;;;;5057064;28;19998;-70
2022/04/01 13:59:35;;;;;;;;;;;5.30;99.90;;;;;;5054989;28;19945;-70
2022/04/01 14:02:03;;;;;;;;;;;5.30;99.90;;;;;;5063651;28;19939;-70
2022/04/01 14:04:29;;;;;;;;;;;5.30;99.90;;;;;;5061644;28;19958;-70
2022/04/01 14:06:56;;;;;;;;;;;5.10;99.90;;;;;;5057316;28;20212;-69
2022/04/01 14:09:22;;;;;;;;;;;4.90;99.90;;;;;;5059154;28;19941;-70
2022/04/01 14:11:51;;;;;;;;;;;4.80;99.90;;;;;;5060234;28;19944;-71
2022/04/01 14:14:18;;;;;;;;;;;4.70;99.90;;;;;;5061448;28;20019;-70
2022/04/01 14:16:44;;;;;;;;;;;4.80;99.90;;;;;;5053822;28;20001;-71
2022/04/01 14:19:12;;;;;;;;;;;4.80;99.90;;;;;;5062768;28;20016;-70
2022/04/01 14:21:40;;;;;;;;;;;4.70;99.90;;;;;;5053148;28;19956;-70
2022/04/01 14:24:07;;;;;;;;;;;4.60;99.90;;;;;;5046466;28;20111;-70
2022/04/01 14:26:33;;;;;;;;;;;4.60;99.90;;;;;;5049144;28;20564;-69
2022/04/01 14:30:17;;;;;;;;;;;4.40;99.90;;;;;;5056014;28;19940;-69
2022/04/01 14:31:58;;;;;;;;;;;4.30;99.90;;;;;;5042699;28;19951;-70
2022/04/01 14:34:27;;;;;;;;;;;4.20;99.90;;;;;;5051616;28;20302;-70
2022/04/01 14:36:54;;;;;;;;;;;4.10;99.90;;;;;;5051529;28;20050;-70
2022/04/01 14:39:21;;;;;;;;;;;4.00;99.90;;;;;;5051540;28;20601;-70
2022/04/01 14:41:48;;;;;;;;;;;4.00;99.90;;;;;;5045990;28;20028;-70
2022/04/01 14:44:14;;;;;;;;;;;3.90;99.90;;;;;;5047724;28;19978;-68
2022/04/01 14:46:41;;;;;;;;;;;3.90;99.90;;;;;;5056189;28;20017;-69
2022/04/01 14:49:07;;;;;;;;;;;3.80;99.90;;;;;;5048623;28;19967;-69
2022/04/01 14:51:35;;;;;;;;;;;3.80;99.90;;;;;;5047498;28;19960;-71